sensor_id;sensor_type;location;lat;lon;timestamp;P1;durP1;ratioP1;P2;durP2;ratioP2
7719;SDS011;3902;49.474;8.616;2023-12-07T00:01:19;10.83;;;8.77;;
7719;SDS011;3902;49.474;8.616;2023-12-07T00:03:44;9.17;;;8.27;;
7719;SDS011;3902;49.474;8.616;2023-12-07T00:06:10;9.27;;;8.47;;
7719;SDS011;3902;49.474;8.616;2023-12-07T00:08:35;9.00;;;8.10;;
7719;SDS011;3902;49.474;8.616;2023-12-07T00:11:01;9.70;;;8.70;;
7719;SDS011;3902;49.474;8.616;2023-12-07T00:13:26;9.80;;;8.80;;
7719;SDS011;3902;49.474;8.616;2023-12-07T00:15:52;9.50;;;8.50;;
7719;SDS011;3902;49.474;8.616;2023-12-07T00:18:17;9.07;;;8.17;;
7719;SDS011;3902;49.474;8.616;2023-12-07T00:20:44;10.20;;;8.53;;
7719;SDS011;3902;49.474;8.616;2023-12-07T00:23:09;9.70;;;8.80;;
7719;SDS011;3902;49.474;8.616;2023-12-07T00:25:37;10.67;;;9.13;;
7719;SDS011;3902;49.474;8.616;2023-12-07T00:28:03;8.90;;;8.10;;
7719;SDS011;3902;49.474;8.616;2023-12-07T00:30:28;9.83;;;8.30;;
7719;SDS011;3902;49.474;8.616;2023-12-07T00:32:54;8.73;;;7.83;;
7719;SDS011;3902;49.474;8.616;2023-12-07T00:35:19;9.40;;;8.40;;
7719;SDS011;3902;49.474;8.616;2023-12-07T00:37:47;10.00;;;9.00;;
7719;SDS011;3902;49.474;8.616;2023-12-07T00:40:13;9.70;;;8.70;;
7719;SDS011;3902;49.474;8.616;2023-12-07T00:42:39;9.17;;;8.27;;
7719;SDS011;3902;49.474;8.616;2023-12-07T00:45:04;8.50;;;7.50;;
7719;SDS011;3902;49.474;8.616;2023-12-07T00:47:30;9.20;;;8.30;;
7719;SDS011;3902;49.474;8.616;2023-12-07T00:49:56;10.03;;;8.90;;
7719;SDS011;3902;49.474;8.616;2023-12-07T00:52:21;9.50;;;8.50;;
7719;SDS011;3902;49.474;8.616;2023-12-07T00:54:47;9.30;;;8.40;;
7719;SDS011;3902;49.474;8.616;2023-12-07T00:57:12;10.03;;;9.10;;
7719;SDS011;3902;49.474;8.616;2023-12-07T00:59:37;9.60;;;8.60;;
7719;SDS011;3902;49.474;8.616;2023-12-07T01:02:03;9.40;;;8.50;;
7719;SDS011;3902;49.474;8.616;2023-12-07T01:04:29;9.77;;;8.87;;
7719;SDS011;3902;49.474;8.616;2023-12-07T01:06:56;10.67;;;9.57;;
7719;SDS011;3902;49.474;8.616;2023-12-07T01:09:22;12.43;;;9.50;;
7719;SDS011;3902;49.474;8.616;2023-12-07T01:11:48;9.40;;;8.50;;
7719;SDS011;3902;49.474;8.616;2023-12-07T01:14:13;9.97;;;9.07;;
7719;SDS011;3902;49.474;8.616;2023-12-07T01:16:39;9.37;;;8.47;;
7719;SDS011;3902;49.474;8.616;2023-12-07T01:19:04;10.90;;;9.80;;
7719;SDS011;3902;49.474;8.616;2023-12-07T01:21:31;9.87;;;8.97;;
7719;SDS011;3902;49.474;8.616;2023-12-07T01:23:57;10.03;;;8.80;;
7719;SDS011;3902;49.474;8.616;2023-12-07T01:26:23;12.03;;;9.70;;
7719;SDS011;3902;49.474;8.616;2023-12-07T01:28:48;10.67;;;9.57;;
7719;SDS011;3902;49.474;8.616;2023-12-07T01:31:14;10.97;;;9.53;;
7719;SDS011;3902;49.474;8.616;2023-12-07T01:33:39;11.47;;;10.37;;
7719;SDS011;3902;49.474;8.616;2023-12-07T01:36:05;9.80;;;8.73;;
7719;SDS011;3902;49.474;8.616;2023-12-07T01:38:31;9.53;;;8.53;;
7719;SDS011;3902;49.474;8.616;2023-12-07T01:40:56;11.40;;;10.30;;
7719;SDS011;3902;49.474;8.616;2023-12-07T01:43:22;10.60;;;9.60;;
7719;SDS011;3902;49.474;8.616;2023-12-07T01:45:48;10.57;;;9.47;;
7719;SDS011;3902;49.474;8.616;2023-12-07T01:48:15;9.87;;;8.80;;
7719;SDS011;3902;49.474;8.616;2023-12-07T01:50:41;11.00;;;9.80;;
7719;SDS011;3902;49.474;8.616;2023-12-07T01:53:06;11.43;;;10.03;;
7719;SDS011;3902;49.474;8.616;2023-12-07T01:55:32;10.80;;;9.70;;
7719;SDS011;3902;49.474;8.616;2023-12-07T01:57:58;10.00;;;9.07;;
7719;SDS011;3902;49.474;8.616;2023-12-07T02:00:24;11.30;;;9.67;;
7719;SDS011;3902;49.474;8.616;2023-12-07T02:02:52;10.50;;;9.23;;
7719;SDS011;3902;49.474;8.616;2023-12-07T02:05:17;8.93;;;7.40;;
7719;SDS011;3902;49.474;8.616;2023-12-07T02:07:43;10.43;;;9.43;;
7719;SDS011;3902;49.474;8.616;2023-12-07T02:10:10;10.50;;;9.50;;
7719;SDS011;3902;49.474;8.616;2023-12-07T02:12:35;11.57;;;9.87;;
7719;SDS011;3902;49.474;8.616;2023-12-07T02:15:02;9.80;;;8.80;;
7719;SDS011;3902;49.474;8.616;2023-12-07T02:20:30;10.50;;;9.50;;
7719;SDS011;3902;49.474;8.616;2023-12-07T02:23:00;10.30;;;9.20;;
7719;SDS011;3902;49.474;8.616;2023-12-07T02:25:31;11.00;;;10.00;;
7719;SDS011;3902;49.474;8.616;2023-12-07T02:28:08;10.57;;;9.47;;
7719;SDS011;3902;49.474;8.616;2023-12-07T02:30:34;10.93;;;9.93;;
7719;SDS011;3902;49.474;8.616;2023-12-07T02:33:00;10.70;;;8.93;;
7719;SDS011;3902;49.474;8.616;2023-12-07T02:35:25;11.03;;;9.33;;
7719;SDS011;3902;49.474;8.616;2023-12-07T02:37:53;10.27;;;9.23;;
7719;SDS011;3902;49.474;8.616;2023-12-07T02:40:21;9.67;;;8.77;;
7719;SDS011;3902;49.474;8.616;2023-12-07T02:42:49;10.00;;;8.70;;
7719;SDS011;3902;49.474;8.616;2023-12-07T02:45:15;10.30;;;8.97;;
7719;SDS011;3902;49.474;8.616;2023-12-07T02:47:40;10.40;;;9.40;;
7719;SDS011;3902;49.474;8.616;2023-12-07T02:50:08;9.83;;;8.83;;
7719;SDS011;3902;49.474;8.616;2023-12-07T02:52:34;9.60;;;8.60;;
7719;SDS011;3902;49.474;8.616;2023-12-07T02:55:00;10.23;;;9.23;;
7719;SDS011;3902;49.474;8.616;2023-12-07T02:57:25;10.07;;;8.90;;
7719;SDS011;3902;49.474;8.616;2023-12-07T02:59:51;10.00;;;9.00;;
7719;SDS011;3902;49.474;8.616;2023-12-07T03:02:17;10.77;;;9.70;;
7719;SDS011;3902;49.474;8.616;2023-12-07T03:04:42;10.67;;;9.57;;
7719;SDS011;3902;49.474;8.616;2023-12-07T03:07:08;11.07;;;9.97;;
7719;SDS011;3902;49.474;8.616;2023-12-07T03:09:33;10.80;;;9.70;;
7719;SDS011;3902;49.474;8.616;2023-12-07T03:11:59;10.20;;;9.17;;
7719;SDS011;3902;49.474;8.616;2023-12-07T03:14:24;10.17;;;9.17;;
7719;SDS011;3902;49.474;8.616;2023-12-07T03:16:49;10.10;;;8.80;;
7719;SDS011;3902;49.474;8.616;2023-12-07T03:19:15;11.63;;;10.17;;
7719;SDS011;3902;49.474;8.616;2023-12-07T03:21:41;10.07;;;9.07;;
7719;SDS011;3902;49.474;8.616;2023-12-07T03:24:08;10.60;;;9.60;;
7719;SDS011;3902;49.474;8.616;2023-12-07T03:26:34;11.47;;;10.27;;
7719;SDS011;3902;49.474;8.616;2023-12-07T03:29:00;11.03;;;9.73;;
7719;SDS011;3902;49.474;8.616;2023-12-07T03:31:25;11.53;;;10.33;;
7719;SDS011;3902;49.474;8.616;2023-12-07T03:33:51;10.37;;;9.37;;
7719;SDS011;3902;49.474;8.616;2023-12-07T03:36:16;10.43;;;9.43;;
7719;SDS011;3902;49.474;8.616;2023-12-07T03:38:42;11.70;;;10.50;;
7719;SDS011;3902;49.474;8.616;2023-12-07T03:41:07;11.30;;;10.20;;
7719;SDS011;3902;49.474;8.616;2023-12-07T03:43:33;11.20;;;10.10;;
7719;SDS011;3902;49.474;8.616;2023-12-07T03:45:59;10.30;;;9.30;;
7719;SDS011;3902;49.474;8.616;2023-12-07T03:48:24;10.53;;;9.53;;
7719;SDS011;3902;49.474;8.616;2023-12-07T03:50:50;13.63;;;10.70;;
7719;SDS011;3902;49.474;8.616;2023-12-07T03:53:15;11.93;;;10.73;;
7719;SDS011;3902;49.474;8.616;2023-12-07T03:55:41;12.63;;;10.97;;
7719;SDS011;3902;49.474;8.616;2023-12-07T03:58:06;13.57;;;11.80;;
7719;SDS011;3902;49.474;8.616;2023-12-07T04:00:32;12.20;;;10.60;;
7719;SDS011;3902;49.474;8.616;2023-12-07T04:02:58;11.97;;;10.70;;
7719;SDS011;3902;49.474;8.616;2023-12-07T04:05:23;11.80;;;10.60;;
7719;SDS011;3902;49.474;8.616;2023-12-07T04:07:49;13.33;;;11.30;;
7719;SDS011;3902;49.474;8.616;2023-12-07T04:10:15;14.47;;;12.40;;
7719;SDS011;3902;49.474;8.616;2023-12-07T04:12:40;14.30;;;12.47;;
7719;SDS011;3902;49.474;8.616;2023-12-07T04:15:06;14.17;;;12.17;;
7719;SDS011;3902;49.474;8.616;2023-12-07T04:17:32;12.87;;;11.57;;
7719;SDS011;3902;49.474;8.616;2023-12-07T04:19:57;12.80;;;11.60;;
7719;SDS011;3902;49.474;8.616;2023-12-07T04:22:23;13.30;;;11.23;;
7719;SDS011;3902;49.474;8.616;2023-12-07T04:24:48;14.77;;;12.40;;
7719;SDS011;3902;49.474;8.616;2023-12-07T04:27:14;13.60;;;11.57;;
7719;SDS011;3902;49.474;8.616;2023-12-07T04:29:40;12.93;;;11.67;;
7719;SDS011;3902;49.474;8.616;2023-12-07T04:32:06;13.40;;;12.00;;
7719;SDS011;3902;49.474;8.616;2023-12-07T04:34:32;14.10;;;12.70;;
7719;SDS011;3902;49.474;8.616;2023-12-07T04:36:58;13.53;;;11.70;;
7719;SDS011;3902;49.474;8.616;2023-12-07T04:39:23;15.53;;;11.93;;
7719;SDS011;3902;49.474;8.616;2023-12-07T04:41:49;14.27;;;12.77;;
7719;SDS011;3902;49.474;8.616;2023-12-07T04:44:14;12.87;;;11.57;;
7719;SDS011;3902;49.474;8.616;2023-12-07T04:46:40;14.70;;;11.87;;
7719;SDS011;3902;49.474;8.616;2023-12-07T04:49:06;12.93;;;11.30;;
7719;SDS011;3902;49.474;8.616;2023-12-07T04:51:32;12.40;;;11.20;;
7719;SDS011;3902;49.474;8.616;2023-12-07T04:53:58;12.93;;;11.57;;
7719;SDS011;3902;49.474;8.616;2023-12-07T04:56:23;13.77;;;12.47;;
7719;SDS011;3902;49.474;8.616;2023-12-07T04:58:49;14.73;;;12.77;;
7719;SDS011;3902;49.474;8.616;2023-12-07T05:01:14;13.77;;;12.10;;
7719;SDS011;3902;49.474;8.616;2023-12-07T05:03:40;13.50;;;12.10;;
7719;SDS011;3902;49.474;8.616;2023-12-07T05:06:05;14.43;;;12.87;;
7719;SDS011;3902;49.474;8.616;2023-12-07T05:08:32;14.07;;;12.60;;
7719;SDS011;3902;49.474;8.616;2023-12-07T05:10:58;13.53;;;12.23;;
7719;SDS011;3902;49.474;8.616;2023-12-07T05:13:23;14.80;;;11.90;;
7719;SDS011;3902;49.474;8.616;2023-12-07T05:15:49;12.47;;;11.17;;
7719;SDS011;3902;49.474;8.616;2023-12-07T05:18:14;15.30;;;12.43;;
7719;SDS011;3902;49.474;8.616;2023-12-07T05:20:40;13.63;;;11.47;;
7719;SDS011;3902;49.474;8.616;2023-12-07T05:23:05;14.37;;;12.83;;
7719;SDS011;3902;49.474;8.616;2023-12-07T05:25:31;13.90;;;12.20;;
7719;SDS011;3902;49.474;8.616;2023-12-07T05:27:57;14.97;;;13.13;;
7719;SDS011;3902;49.474;8.616;2023-12-07T05:30:23;13.60;;;12.20;;
7719;SDS011;3902;49.474;8.616;2023-12-07T05:32:49;12.07;;;10.87;;
7719;SDS011;3902;49.474;8.616;2023-12-07T05:35:15;12.93;;;11.63;;
7719;SDS011;3902;49.474;8.616;2023-12-07T05:37:41;13.30;;;11.90;;
7719;SDS011;3902;49.474;8.616;2023-12-07T05:40:06;14.20;;;12.60;;
7719;SDS011;3902;49.474;8.616;2023-12-07T05:42:33;15.27;;;13.67;;
7719;SDS011;3902;49.474;8.616;2023-12-07T05:44:58;14.23;;;12.63;;
7719;SDS011;3902;49.474;8.616;2023-12-07T05:47:24;14.10;;;12.70;;
7719;SDS011;3902;49.474;8.616;2023-12-07T05:49:51;13.83;;;12.43;;
7719;SDS011;3902;49.474;8.616;2023-12-07T05:52:16;14.93;;;12.40;;
7719;SDS011;3902;49.474;8.616;2023-12-07T05:54:42;13.90;;;12.50;;
7719;SDS011;3902;49.474;8.616;2023-12-07T05:57:08;14.57;;;13.07;;
7719;SDS011;3902;49.474;8.616;2023-12-07T05:59:37;14.00;;;12.53;;
7719;SDS011;3902;49.474;8.616;2023-12-07T06:02:03;14.93;;;13.30;;
7719;SDS011;3902;49.474;8.616;2023-12-07T06:04:29;14.57;;;12.97;;
7719;SDS011;3902;49.474;8.616;2023-12-07T06:06:55;16.40;;;14.53;;
7719;SDS011;3902;49.474;8.616;2023-12-07T06:09:21;14.97;;;13.47;;
7719;SDS011;3902;49.474;8.616;2023-12-07T06:11:47;15.50;;;13.73;;
7719;SDS011;3902;49.474;8.616;2023-12-07T06:14:12;15.27;;;13.53;;
7719;SDS011;3902;49.474;8.616;2023-12-07T06:16:38;17.20;;;13.73;;
7719;SDS011;3902;49.474;8.616;2023-12-07T06:19:04;15.27;;;13.70;;
7719;SDS011;3902;49.474;8.616;2023-12-07T06:21:29;15.80;;;12.90;;
7719;SDS011;3902;49.474;8.616;2023-12-07T06:23:56;15.33;;;13.67;;
7719;SDS011;3902;49.474;8.616;2023-12-07T06:26:22;16.80;;;13.43;;
7719;SDS011;3902;49.474;8.616;2023-12-07T06:28:47;14.67;;;13.10;;
7719;SDS011;3902;49.474;8.616;2023-12-07T06:31:13;15.27;;;13.60;;
7719;SDS011;3902;49.474;8.616;2023-12-07T06:33:41;15.90;;;13.77;;
7719;SDS011;3902;49.474;8.616;2023-12-07T06:36:06;14.30;;;12.80;;
7719;SDS011;3902;49.474;8.616;2023-12-07T06:38:32;14.60;;;13.10;;
7719;SDS011;3902;49.474;8.616;2023-12-07T06:40:58;15.80;;;14.10;;
7719;SDS011;3902;49.474;8.616;2023-12-07T06:43:23;14.60;;;9.90;;
7719;SDS011;3902;49.474;8.616;2023-12-07T06:45:49;14.47;;;12.97;;
7719;SDS011;3902;49.474;8.616;2023-12-07T06:48:14;13.43;;;12.13;;
7719;SDS011;3902;49.474;8.616;2023-12-07T06:50:40;15.60;;;13.83;;
7719;SDS011;3902;49.474;8.616;2023-12-07T06:53:06;14.20;;;12.70;;
7719;SDS011;3902;49.474;8.616;2023-12-07T06:55:32;14.70;;;13.13;;
7719;SDS011;3902;49.474;8.616;2023-12-07T06:57:57;14.23;;;12.80;;
7719;SDS011;3902;49.474;8.616;2023-12-07T07:00:23;14.93;;;13.33;;
7719;SDS011;3902;49.474;8.616;2023-12-07T07:02:49;13.70;;;12.30;;
7719;SDS011;3902;49.474;8.616;2023-12-07T07:05:15;15.60;;;13.33;;
7719;SDS011;3902;49.474;8.616;2023-12-07T07:07:40;15.13;;;13.53;;
7719;SDS011;3902;49.474;8.616;2023-12-07T07:10:06;16.53;;;13.50;;
7719;SDS011;3902;49.474;8.616;2023-12-07T07:12:35;15.13;;;13.53;;
7719;SDS011;3902;49.474;8.616;2023-12-07T07:15:00;15.90;;;12.90;;
7719;SDS011;3902;49.474;8.616;2023-12-07T07:17:26;14.40;;;12.93;;
7719;SDS011;3902;49.474;8.616;2023-12-07T07:19:54;16.73;;;14.23;;
7719;SDS011;3902;49.474;8.616;2023-12-07T07:22:20;16.87;;;15.07;;
7719;SDS011;3902;49.474;8.616;2023-12-07T07:24:46;17.07;;;15.33;;
7719;SDS011;3902;49.474;8.616;2023-12-07T07:27:12;16.60;;;14.60;;
7719;SDS011;3902;49.474;8.616;2023-12-07T07:29:37;16.63;;;14.60;;
7719;SDS011;3902;49.474;8.616;2023-12-07T07:32:03;15.57;;;13.97;;
7719;SDS011;3902;49.474;8.616;2023-12-07T07:34:29;15.33;;;13.70;;
7719;SDS011;3902;49.474;8.616;2023-12-07T07:36:55;18.07;;;13.60;;
7719;SDS011;3902;49.474;8.616;2023-12-07T07:39:20;14.53;;;13.03;;
7719;SDS011;3902;49.474;8.616;2023-12-07T07:41:46;14.03;;;12.57;;
7719;SDS011;3902;49.474;8.616;2023-12-07T07:44:11;14.00;;;12.50;;
7719;SDS011;3902;49.474;8.616;2023-12-07T07:46:37;13.43;;;12.10;;
7719;SDS011;3902;49.474;8.616;2023-12-07T07:49:02;15.03;;;12.70;;
7719;SDS011;3902;49.474;8.616;2023-12-07T07:51:31;17.70;;;14.53;;
7719;SDS011;3902;49.474;8.616;2023-12-07T07:53:57;14.20;;;12.70;;
7719;SDS011;3902;49.474;8.616;2023-12-07T07:56:23;14.87;;;13.23;;
7719;SDS011;3902;49.474;8.616;2023-12-07T07:58:49;15.43;;;13.90;;
7719;SDS011;3902;49.474;8.616;2023-12-07T08:01:14;14.93;;;13.43;;
7719;SDS011;3902;49.474;8.616;2023-12-07T08:03:40;13.50;;;12.10;;
7719;SDS011;3902;49.474;8.616;2023-12-07T08:06:06;15.17;;;13.40;;
7719;SDS011;3902;49.474;8.616;2023-12-07T08:08:32;14.37;;;12.97;;
7719;SDS011;3902;49.474;8.616;2023-12-07T08:10:57;14.60;;;13.10;;
7719;SDS011;3902;49.474;8.616;2023-12-07T08:13:23;15.37;;;13.87;;
7719;SDS011;3902;49.474;8.616;2023-12-07T08:15:48;13.30;;;11.40;;
7719;SDS011;3902;49.474;8.616;2023-12-07T08:18:14;14.77;;;12.17;;
7719;SDS011;3902;49.474;8.616;2023-12-07T08:20:39;15.60;;;14.00;;
7719;SDS011;3902;49.474;8.616;2023-12-07T08:23:05;16.07;;;13.97;;
7719;SDS011;3902;49.474;8.616;2023-12-07T08:25:30;18.40;;;15.40;;
7719;SDS011;3902;49.474;8.616;2023-12-07T08:27:57;19.00;;;14.97;;
7719;SDS011;3902;49.474;8.616;2023-12-07T08:30:22;17.83;;;14.63;;
7719;SDS011;3902;49.474;8.616;2023-12-07T08:32:48;20.17;;;15.53;;
7719;SDS011;3902;49.474;8.616;2023-12-07T08:35:13;22.30;;;15.87;;
7719;SDS011;3902;49.474;8.616;2023-12-07T08:37:39;21.13;;;17.30;;
7719;SDS011;3902;49.474;8.616;2023-12-07T08:40:05;19.90;;;16.53;;
7719;SDS011;3902;49.474;8.616;2023-12-07T08:42:31;17.80;;;15.40;;
7719;SDS011;3902;49.474;8.616;2023-12-07T08:44:57;17.03;;;15.03;;
7719;SDS011;3902;49.474;8.616;2023-12-07T08:47:22;19.20;;;15.20;;
7719;SDS011;3902;49.474;8.616;2023-12-07T08:49:48;19.03;;;16.93;;
7719;SDS011;3902;49.474;8.616;2023-12-07T08:52:16;19.97;;;16.70;;
7719;SDS011;3902;49.474;8.616;2023-12-07T08:54:42;22.93;;;16.50;;
7719;SDS011;3902;49.474;8.616;2023-12-07T08:57:08;18.83;;;16.27;;
7719;SDS011;3902;49.474;8.616;2023-12-07T08:59:34;20.80;;;18.40;;
7719;SDS011;3902;49.474;8.616;2023-12-07T09:01:59;21.03;;;17.17;;
7719;SDS011;3902;49.474;8.616;2023-12-07T09:04:25;21.83;;;18.43;;
7719;SDS011;3902;49.474;8.616;2023-12-07T09:06:50;24.13;;;17.70;;
7719;SDS011;3902;49.474;8.616;2023-12-07T09:09:16;24.37;;;19.80;;
7719;SDS011;3902;49.474;8.616;2023-12-07T09:11:41;24.17;;;18.83;;
7719;SDS011;3902;49.474;8.616;2023-12-07T09:14:07;23.50;;;18.83;;
7719;SDS011;3902;49.474;8.616;2023-12-07T09:16:33;22.97;;;17.67;;
7719;SDS011;3902;49.474;8.616;2023-12-07T09:18:59;27.80;;;19.80;;
7719;SDS011;3902;49.474;8.616;2023-12-07T09:21:25;21.37;;;17.60;;
7719;SDS011;3902;49.474;8.616;2023-12-07T09:23:50;23.47;;;19.30;;
7719;SDS011;3902;49.474;8.616;2023-12-07T09:26:17;19.97;;;16.60;;
7719;SDS011;3902;49.474;8.616;2023-12-07T09:28:42;21.40;;;17.80;;
7719;SDS011;3902;49.474;8.616;2023-12-07T09:31:08;18.00;;;15.63;;
7719;SDS011;3902;49.474;8.616;2023-12-07T09:33:33;24.57;;;16.83;;
7719;SDS011;3902;49.474;8.616;2023-12-07T09:35:59;16.80;;;15.00;;
7719;SDS011;3902;49.474;8.616;2023-12-07T09:38:24;21.07;;;17.17;;
7719;SDS011;3902;49.474;8.616;2023-12-07T09:40:53;20.90;;;15.60;;
7719;SDS011;3902;49.474;8.616;2023-12-07T09:43:20;22.03;;;16.10;;
7719;SDS011;3902;49.474;8.616;2023-12-07T09:45:45;16.90;;;15.00;;
7719;SDS011;3902;49.474;8.616;2023-12-07T09:48:12;18.30;;;15.63;;
7719;SDS011;3902;49.474;8.616;2023-12-07T09:50:38;20.90;;;16.37;;
7719;SDS011;3902;49.474;8.616;2023-12-07T09:53:04;18.97;;;16.13;;
7719;SDS011;3902;49.474;8.616;2023-12-07T09:55:29;18.73;;;15.10;;
7719;SDS011;3902;49.474;8.616;2023-12-07T09:57:55;16.80;;;14.30;;
7719;SDS011;3902;49.474;8.616;2023-12-07T10:00:23;15.63;;;13.90;;
7719;SDS011;3902;49.474;8.616;2023-12-07T10:02:48;18.77;;;15.67;;
7719;SDS011;3902;49.474;8.616;2023-12-07T10:05:15;15.27;;;13.47;;
7719;SDS011;3902;49.474;8.616;2023-12-07T10:07:46;14.43;;;12.90;;
7719;SDS011;3902;49.474;8.616;2023-12-07T10:10:13;13.00;;;11.60;;
7719;SDS011;3902;49.474;8.616;2023-12-07T10:12:46;15.17;;;12.67;;
7719;SDS011;3902;49.474;8.616;2023-12-07T10:15:12;13.40;;;11.90;;
7719;SDS011;3902;49.474;8.616;2023-12-07T10:17:51;13.90;;;12.47;;
7719;SDS011;3902;49.474;8.616;2023-12-07T10:20:19;13.73;;;10.77;;
7719;SDS011;3902;49.474;8.616;2023-12-07T10:22:48;11.90;;;9.93;;
7719;SDS011;3902;49.474;8.616;2023-12-07T10:25:31;9.77;;;8.77;;
7719;SDS011;3902;49.474;8.616;2023-12-07T10:27:57;11.47;;;9.07;;
7719;SDS011;3902;49.474;8.616;2023-12-07T10:30:23;9.93;;;8.93;;
7719;SDS011;3902;49.474;8.616;2023-12-07T10:32:51;11.67;;;10.47;;
7719;SDS011;3902;49.474;8.616;2023-12-07T10:35:18;11.30;;;9.70;;
7719;SDS011;3902;49.474;8.616;2023-12-07T10:37:44;11.90;;;10.30;;
7719;SDS011;3902;49.474;8.616;2023-12-07T10:40:10;11.17;;;10.07;;
7719;SDS011;3902;49.474;8.616;2023-12-07T10:42:36;10.00;;;9.10;;
7719;SDS011;3902;49.474;8.616;2023-12-07T10:45:05;10.43;;;9.33;;
7719;SDS011;3902;49.474;8.616;2023-12-07T10:47:33;10.60;;;9.50;;
7719;SDS011;3902;49.474;8.616;2023-12-07T10:50:01;10.47;;;9.47;;
7719;SDS011;3902;49.474;8.616;2023-12-07T10:52:31;9.50;;;8.57;;
7719;SDS011;3902;49.474;8.616;2023-12-07T10:55:03;10.40;;;9.37;;
7719;SDS011;3902;49.474;8.616;2023-12-07T10:57:32;10.53;;;9.43;;
7719;SDS011;3902;49.474;8.616;2023-12-07T11:00:00;12.03;;;10.73;;
7719;SDS011;3902;49.474;8.616;2023-12-07T11:02:26;11.47;;;10.27;;
7719;SDS011;3902;49.474;8.616;2023-12-07T11:04:54;10.90;;;9.80;;
7719;SDS011;3902;49.474;8.616;2023-12-07T11:07:22;10.93;;;9.70;;
7719;SDS011;3902;49.474;8.616;2023-12-07T11:09:57;11.13;;;10.03;;
7719;SDS011;3902;49.474;8.616;2023-12-07T11:12:31;11.63;;;10.40;;
7719;SDS011;3902;49.474;8.616;2023-12-07T11:15:03;12.23;;;10.93;;
7719;SDS011;3902;49.474;8.616;2023-12-07T11:17:30;11.50;;;10.30;;
7719;SDS011;3902;49.474;8.616;2023-12-07T11:20:44;11.60;;;10.50;;
7719;SDS011;3902;49.474;8.616;2023-12-07T11:23:16;11.30;;;9.87;;
7719;SDS011;3902;49.474;8.616;2023-12-07T11:25:45;10.10;;;9.10;;
7719;SDS011;3902;49.474;8.616;2023-12-07T11:28:12;9.77;;;8.87;;
7719;SDS011;3902;49.474;8.616;2023-12-07T11:30:41;8.43;;;7.53;;
7719;SDS011;3902;49.474;8.616;2023-12-07T11:33:08;8.37;;;7.57;;
7719;SDS011;3902;49.474;8.616;2023-12-07T11:36:03;8.77;;;7.70;;
7719;SDS011;3902;49.474;8.616;2023-12-07T11:38:26;7.83;;;7.03;;
7719;SDS011;3902;49.474;8.616;2023-12-07T11:40:51;9.73;;;8.77;;
7719;SDS011;3902;49.474;8.616;2023-12-07T11:46:03;8.50;;;7.30;;
7719;SDS011;3902;49.474;8.616;2023-12-07T11:48:28;8.07;;;7.27;;
7719;SDS011;3902;49.474;8.616;2023-12-07T11:50:58;9.20;;;8.30;;
7719;SDS011;3902;49.474;8.616;2023-12-07T11:53:26;10.83;;;9.73;;
7719;SDS011;3902;49.474;8.616;2023-12-07T11:55:55;10.50;;;9.20;;
7719;SDS011;3902;49.474;8.616;2023-12-07T11:58:23;11.07;;;8.40;;
7719;SDS011;3902;49.474;8.616;2023-12-07T12:00:50;10.20;;;9.20;;
7719;SDS011;3902;49.474;8.616;2023-12-07T12:03:17;8.50;;;7.60;;
7719;SDS011;3902;49.474;8.616;2023-12-07T12:05:42;10.03;;;8.40;;
7719;SDS011;3902;49.474;8.616;2023-12-07T12:08:09;9.50;;;8.30;;
7719;SDS011;3902;49.474;8.616;2023-12-07T12:10:35;7.90;;;7.10;;
7719;SDS011;3902;49.474;8.616;2023-12-07T12:13:01;7.87;;;6.90;;
7719;SDS011;3902;49.474;8.616;2023-12-07T12:15:28;9.07;;;8.17;;
7719;SDS011;3902;49.474;8.616;2023-12-07T12:17:55;8.30;;;7.33;;
7719;SDS011;3902;49.474;8.616;2023-12-07T12:20:21;7.80;;;7.10;;
7719;SDS011;3902;49.474;8.616;2023-12-07T12:22:47;7.80;;;7.10;;
7719;SDS011;3902;49.474;8.616;2023-12-07T12:25:12;7.60;;;6.80;;
7719;SDS011;3902;49.474;8.616;2023-12-07T12:27:39;10.00;;;8.93;;
7719;SDS011;3902;49.474;8.616;2023-12-07T12:30:05;9.10;;;8.20;;
7719;SDS011;3902;49.474;8.616;2023-12-07T12:32:44;9.80;;;8.90;;
7719;SDS011;3902;49.474;8.616;2023-12-07T12:35:10;13.60;;;8.10;;
7719;SDS011;3902;49.474;8.616;2023-12-07T12:37:38;9.00;;;8.07;;
7719;SDS011;3902;49.474;8.616;2023-12-07T12:40:07;8.77;;;7.93;;
7719;SDS011;3902;49.474;8.616;2023-12-07T12:42:34;9.23;;;8.37;;
7719;SDS011;3902;49.474;8.616;2023-12-07T12:45:02;8.83;;;8.00;;
7719;SDS011;3902;49.474;8.616;2023-12-07T12:47:33;10.40;;;8.10;;
7719;SDS011;3902;49.474;8.616;2023-12-07T12:50:00;8.50;;;7.53;;
7719;SDS011;3902;49.474;8.616;2023-12-07T12:52:29;8.33;;;7.33;;
7719;SDS011;3902;49.474;8.616;2023-12-07T12:54:55;10.13;;;8.20;;
7719;SDS011;3902;49.474;8.616;2023-12-07T12:57:21;7.73;;;7.03;;
7719;SDS011;3902;49.474;8.616;2023-12-07T12:59:48;8.60;;;7.80;;
7719;SDS011;3902;49.474;8.616;2023-12-07T13:02:15;8.33;;;7.53;;
7719;SDS011;3902;49.474;8.616;2023-12-07T13:04:40;7.57;;;6.87;;
7719;SDS011;3902;49.474;8.616;2023-12-07T13:07:06;8.30;;;7.20;;
7719;SDS011;3902;49.474;8.616;2023-12-07T13:09:31;8.70;;;7.00;;
7719;SDS011;3902;49.474;8.616;2023-12-07T13:11:57;7.40;;;6.70;;
7719;SDS011;3902;49.474;8.616;2023-12-07T13:14:23;6.90;;;6.20;;
7719;SDS011;3902;49.474;8.616;2023-12-07T13:16:49;7.07;;;6.40;;
7719;SDS011;3902;49.474;8.616;2023-12-07T13:19:15;8.40;;;6.17;;
7719;SDS011;3902;49.474;8.616;2023-12-07T13:21:40;6.77;;;6.17;;
7719;SDS011;3902;49.474;8.616;2023-12-07T13:24:06;7.27;;;6.57;;
7719;SDS011;3902;49.474;8.616;2023-12-07T13:26:33;7.00;;;6.30;;
7719;SDS011;3902;49.474;8.616;2023-12-07T13:28:59;6.70;;;6.00;;
7719;SDS011;3902;49.474;8.616;2023-12-07T13:31:24;6.80;;;5.93;;
7719;SDS011;3902;49.474;8.616;2023-12-07T13:33:50;7.03;;;6.43;;
7719;SDS011;3902;49.474;8.616;2023-12-07T13:36:16;7.00;;;6.30;;
7719;SDS011;3902;49.474;8.616;2023-12-07T13:38:46;7.10;;;6.40;;
7719;SDS011;3902;49.474;8.616;2023-12-07T13:41:12;7.33;;;6.10;;
7719;SDS011;3902;49.474;8.616;2023-12-07T13:43:37;7.10;;;6.40;;
7719;SDS011;3902;49.474;8.616;2023-12-07T13:46:03;9.00;;;8.10;;
7719;SDS011;3902;49.474;8.616;2023-12-07T13:48:29;10.10;;;8.83;;
7719;SDS011;3902;49.474;8.616;2023-12-07T13:50:54;10.70;;;9.50;;
7719;SDS011;3902;49.474;8.616;2023-12-07T13:53:20;12.40;;;11.13;;
7719;SDS011;3902;49.474;8.616;2023-12-07T13:55:46;11.90;;;10.60;;
7719;SDS011;3902;49.474;8.616;2023-12-07T13:58:12;13.23;;;11.93;;
7719;SDS011;3902;49.474;8.616;2023-12-07T14:00:38;14.53;;;12.37;;
7719;SDS011;3902;49.474;8.616;2023-12-07T14:03:03;13.60;;;11.67;;
7719;SDS011;3902;49.474;8.616;2023-12-07T14:05:29;17.80;;;12.80;;
7719;SDS011;3902;49.474;8.616;2023-12-07T14:07:55;16.90;;;13.70;;
7719;SDS011;3902;49.474;8.616;2023-12-07T14:10:21;13.70;;;12.23;;
7719;SDS011;3902;49.474;8.616;2023-12-07T14:12:47;16.70;;;14.90;;
7719;SDS011;3902;49.474;8.616;2023-12-07T14:15:13;15.80;;;12.57;;
7719;SDS011;3902;49.474;8.616;2023-12-07T14:17:38;16.03;;;14.30;;
7719;SDS011;3902;49.474;8.616;2023-12-07T14:20:07;15.33;;;13.70;;
7719;SDS011;3902;49.474;8.616;2023-12-07T14:22:34;16.30;;;14.60;;
7719;SDS011;3902;49.474;8.616;2023-12-07T14:25:00;16.80;;;14.67;;
7719;SDS011;3902;49.474;8.616;2023-12-07T14:27:26;18.80;;;15.17;;
7719;SDS011;3902;49.474;8.616;2023-12-07T14:29:52;18.60;;;15.17;;
7719;SDS011;3902;49.474;8.616;2023-12-07T14:32:18;17.47;;;15.00;;
7719;SDS011;3902;49.474;8.616;2023-12-07T14:34:43;17.00;;;15.00;;
7719;SDS011;3902;49.474;8.616;2023-12-07T14:37:09;18.43;;;16.00;;
7719;SDS011;3902;49.474;8.616;2023-12-07T14:39:35;17.20;;;15.23;;
7719;SDS011;3902;49.474;8.616;2023-12-07T14:42:01;17.07;;;14.30;;
7719;SDS011;3902;49.474;8.616;2023-12-07T14:44:27;17.93;;;15.87;;
7719;SDS011;3902;49.474;8.616;2023-12-07T14:46:53;19.97;;;16.10;;
7719;SDS011;3902;49.474;8.616;2023-12-07T14:49:19;17.53;;;15.67;;
7719;SDS011;3902;49.474;8.616;2023-12-07T14:51:46;17.83;;;14.53;;
7719;SDS011;3902;49.474;8.616;2023-12-07T14:54:12;18.17;;;14.97;;
7719;SDS011;3902;49.474;8.616;2023-12-07T14:56:38;18.60;;;15.87;;
7719;SDS011;3902;49.474;8.616;2023-12-07T14:59:04;17.60;;;15.70;;